sensor_id;sensor_type;location;lat;lon;timestamp;pressure;altitude;pressure_sealevel;temperature
69415;BMP280;56608;43.530;-5.652;2023-03-21T00:00:59;101733.34;;;15.23
69415;BMP280;56608;43.530;-5.652;2023-03-21T00:02:02;101736.94;;;15.20
69415;BMP280;56608;43.530;-5.652;2023-03-21T00:03:03;101734.84;;;15.24
69415;BMP280;56608;43.530;-5.652;2023-03-21T00:04:03;101729.88;;;15.23
69415;BMP280;56608;43.530;-5.652;2023-03-21T00:05:04;101728.44;;;15.09
69415;BMP280;56608;43.530;-5.652;2023-03-21T00:06:06;101734.06;;;15.02
69415;BMP280;56608;43.530;-5.652;2023-03-21T00:07:06;101733.69;;;14.91
69415;BMP280;56608;43.530;-5.652;2023-03-21T00:08:07;101731.56;;;14.86
69415;BMP280;56608;43.530;-5.652;2023-03-21T00:09:07;101738.16;;;14.72
69415;BMP280;56608;43.530;-5.652;2023-03-21T00:10:08;101732.13;;;14.68
69415;BMP280;56608;43.530;-5.652;2023-03-21T00:11:09;101732.69;;;14.63
69415;BMP280;56608;43.530;-5.652;2023-03-21T00:12:11;101729.53;;;14.65
69415;BMP280;56608;43.530;-5.652;2023-03-21T00:13:12;101723.16;;;14.59
69415;BMP280;56608;43.530;-5.652;2023-03-21T00:14:12;101727.38;;;14.60
69415;BMP280;56608;43.530;-5.652;2023-03-21T00:15:14;101724.66;;;14.60
69415;BMP280;56608;43.530;-5.652;2023-03-21T00:16:17;101731.59;;;14.61
69415;BMP280;56608;43.530;-5.652;2023-03-21T00:17:18;101727.72;;;14.62
69415;BMP280;56608;43.530;-5.652;2023-03-21T00:18:21;101725.19;;;14.55
69415;BMP280;56608;43.530;-5.652;2023-03-21T00:19:22;101725.31;;;14.51
69415;BMP280;56608;43.530;-5.652;2023-03-21T00:20:25;101720.34;;;14.50
69415;BMP280;56608;43.530;-5.652;2023-03-21T00:21:25;101713.41;;;14.48
69415;BMP280;56608;43.530;-5.652;2023-03-21T00:22:33;101717.09;;;14.55
69415;BMP280;56608;43.530;-5.652;2023-03-21T00:23:33;101720.97;;;14.54
69415;BMP280;56608;43.530;-5.652;2023-03-21T00:24:34;101718.63;;;14.56
69415;BMP280;56608;43.530;-5.652;2023-03-21T00:25:34;101713.97;;;14.56
69415;BMP280;56608;43.530;-5.652;2023-03-21T00:26:35;101720.16;;;14.57
69415;BMP280;56608;43.530;-5.652;2023-03-21T00:27:37;101719.88;;;14.64
69415;BMP280;56608;43.530;-5.652;2023-03-21T00:28:40;101718.69;;;14.52
69415;BMP280;56608;43.530;-5.652;2023-03-21T00:29:41;101717.87;;;14.55
69415;BMP280;56608;43.530;-5.652;2023-03-21T00:30:41;101717.00;;;14.45
69415;BMP280;56608;43.530;-5.652;2023-03-21T00:31:41;101716.06;;;14.39
69415;BMP280;56608;43.530;-5.652;2023-03-21T00:32:42;101710.84;;;14.45
69415;BMP280;56608;43.530;-5.652;2023-03-21T00:33:42;101714.53;;;14.38
69415;BMP280;56608;43.530;-5.652;2023-03-21T00:34:43;101707.38;;;14.44
69415;BMP280;56608;43.530;-5.652;2023-03-21T00:35:44;101708.66;;;14.53
69415;BMP280;56608;43.530;-5.652;2023-03-21T00:36:47;101701.03;;;14.38
69415;BMP280;56608;43.530;-5.652;2023-03-21T00:37:47;101703.28;;;14.27
69415;BMP280;56608;43.530;-5.652;2023-03-21T00:38:47;101707.06;;;14.30
69415;BMP280;56608;43.530;-5.652;2023-03-21T00:39:47;101713.44;;;14.23
69415;BMP280;56608;43.530;-5.652;2023-03-21T00:40:48;101713.00;;;14.25
69415;BMP280;56608;43.530;-5.652;2023-03-21T00:41:48;101704.78;;;14.28
69415;BMP280;56608;43.530;-5.652;2023-03-21T00:42:49;101713.44;;;14.23
69415;BMP280;56608;43.530;-5.652;2023-03-21T00:43:49;101707.06;;;14.30
69415;BMP280;56608;43.530;-5.652;2023-03-21T00:44:51;101708.69;;;14.27
69415;BMP280;56608;43.530;-5.652;2023-03-21T00:45:51;101703.94;;;14.31
69415;BMP280;56608;43.530;-5.652;2023-03-21T00:46:51;101698.53;;;14.31
69415;BMP280;56608;43.530;-5.652;2023-03-21T00:47:51;101703.06;;;14.34
69415;BMP280;56608;43.530;-5.652;2023-03-21T00:48:52;101701.13;;;14.35
69415;BMP280;56608;43.530;-5.652;2023-03-21T00:49:53;101706.44;;;14.38
69415;BMP280;56608;43.530;-5.652;2023-03-21T00:50:54;101713.44;;;14.23
69415;BMP280;56608;43.530;-5.652;2023-03-21T00:51:54;101711.28;;;14.18
69415;BMP280;56608;43.530;-5.652;2023-03-21T00:52:55;101711.84;;;14.13
69415;BMP280;56608;43.530;-5.652;2023-03-21T00:53:56;101706.31;;;14.04
69415;BMP280;56608;43.530;-5.652;2023-03-21T00:54:57;101716.28;;;14.07
69415;BMP280;56608;43.530;-5.652;2023-03-21T00:55:57;101717.44;;;14.06
69415;BMP280;56608;43.530;-5.652;2023-03-21T00:56:57;101715.28;;;14.01
69415;BMP280;56608;43.530;-5.652;2023-03-21T00:57:58;101710.41;;;13.96
69415;BMP280;56608;43.530;-5.652;2023-03-21T00:58:58;101711.47;;;13.86
69415;BMP280;56608;43.530;-5.652;2023-03-21T00:59:58;101713.97;;;13.80
69415;BMP280;56608;43.530;-5.652;2023-03-21T01:00:59;101719.69;;;13.82
69415;BMP280;56608;43.530;-5.652;2023-03-21T01:02:01;101712.91;;;13.90
69415;BMP280;56608;43.530;-5.652;2023-03-21T01:03:06;101713.12;;;13.83
69415;BMP280;56608;43.530;-5.652;2023-03-21T01:04:08;101717.94;;;13.76
69415;BMP280;56608;43.530;-5.652;2023-03-21T01:05:13;101714.41;;;13.79
69415;BMP280;56608;43.530;-5.652;2023-03-21T01:06:35;101709.66;;;13.83
69415;BMP280;56608;43.530;-5.652;2023-03-21T01:07:38;101711.37;;;13.89
69415;BMP280;56608;43.530;-5.652;2023-03-21T01:08:39;101712.34;;;13.95
69415;BMP280;56608;43.530;-5.652;2023-03-21T01:09:40;101711.25;;;13.93
69415;BMP280;56608;43.530;-5.652;2023-03-21T01:10:41;101719.44;;;13.77
69415;BMP280;56608;43.530;-5.652;2023-03-21T01:11:42;101717.75;;;13.83
69415;BMP280;56608;43.530;-5.652;2023-03-21T01:12:43;101712.34;;;13.83
69415;BMP280;56608;43.530;-5.652;2023-03-21T01:13:43;101709.09;;;13.88
69415;BMP280;56608;43.530;-5.652;2023-03-21T01:14:43;101708.47;;;13.84
69415;BMP280;56608;43.530;-5.652;2023-03-21T01:15:45;101709.22;;;13.84
69415;BMP280;56608;43.530;-5.652;2023-03-21T01:16:45;101716.56;;;13.84
69415;BMP280;56608;43.530;-5.652;2023-03-21T01:17:46;101713.53;;;13.82
69415;BMP280;56608;43.530;-5.652;2023-03-21T01:18:46;101723.69;;;13.78
69415;BMP280;56608;43.530;-5.652;2023-03-21T01:19:47;101720.12;;;13.81
69415;BMP280;56608;43.530;-5.652;2023-03-21T01:20:48;101720.88;;;13.81
69415;BMP280;56608;43.530;-5.652;2023-03-21T01:21:48;101721.84;;;13.87
69415;BMP280;56608;43.530;-5.652;2023-03-21T01:22:48;101730.19;;;13.93
69415;BMP280;56608;43.530;-5.652;2023-03-21T01:23:49;101729.88;;;13.91
69415;BMP280;56608;43.530;-5.652;2023-03-21T01:24:49;101729.88;;;13.91
69415;BMP280;56608;43.530;-5.652;2023-03-21T01:25:51;101728.34;;;13.90
69415;BMP280;56608;43.530;-5.652;2023-03-21T01:26:51;101722.84;;;13.93
69415;BMP280;56608;43.530;-5.652;2023-03-21T01:27:52;101732.66;;;13.87
69415;BMP280;56608;43.530;-5.652;2023-03-21T01:28:53;101724.00;;;13.92
69415;BMP280;56608;43.530;-5.652;2023-03-21T01:29:54;101722.28;;;13.86
69415;BMP280;56608;43.530;-5.652;2023-03-21T01:30:54;101727.38;;;13.84
69415;BMP280;56608;43.530;-5.652;2023-03-21T01:31:55;101726.19;;;13.85
69415;BMP280;56608;43.530;-5.652;2023-03-21T01:32:55;101728.03;;;13.88
69415;BMP280;56608;43.530;-5.652;2023-03-21T01:33:55;101718.41;;;13.87
69415;BMP280;56608;43.530;-5.652;2023-03-21T01:34:55;101719.56;;;13.86
69415;BMP280;56608;43.530;-5.652;2023-03-21T01:35:56;101714.19;;;13.86
69415;BMP280;56608;43.530;-5.652;2023-03-21T01:36:57;101718.72;;;13.89
69415;BMP280;56608;43.530;-5.652;2023-03-21T01:37:57;101722.94;;;13.90
69415;BMP280;56608;43.530;-5.652;2023-03-21T01:38:58;101716.56;;;13.96
69415;BMP280;56608;43.530;-5.652;2023-03-21T01:39:59;101720.03;;;13.97
69415;BMP280;56608;43.530;-5.652;2023-03-21T01:41:00;101719.09;;;14.03
69415;BMP280;56608;43.530;-5.652;2023-03-21T01:42:03;101723.03;;;13.99
69415;BMP280;56608;43.530;-5.652;2023-03-21T01:43:03;101722.75;;;13.97
69415;BMP280;56608;43.530;-5.652;2023-03-21T01:44:13;101723.81;;;13.99
69415;BMP280;56608;43.530;-5.652;2023-03-21T01:47:43;101713.41;;;13.85
69415;BMP280;56608;43.530;-5.652;2023-03-21T01:48:43;101715.91;;;13.80
69415;BMP280;56608;43.530;-5.652;2023-03-21T01:49:44;101708.13;;;13.82
69415;BMP280;56608;43.530;-5.652;2023-03-21T01:50:46;101713.97;;;13.80
69415;BMP280;56608;43.530;-5.652;2023-03-21T01:51:49;101713.53;;;13.82
69415;BMP280;56608;43.530;-5.652;2023-03-21T01:52:51;101709.75;;;13.79
69415;BMP280;56608;43.530;-5.652;2023-03-21T01:53:51;101720.03;;;13.84
69415;BMP280;56608;43.530;-5.652;2023-03-21T01:54:52;101718.19;;;13.81
69415;BMP280;56608;43.530;-5.652;2023-03-21T01:55:58;101719.81;;;13.79
69415;BMP280;56608;43.530;-5.652;2023-03-21T01:57:01;101713.97;;;13.80
69415;BMP280;56608;43.530;-5.652;2023-03-21T01:58:03;101720.53;;;13.79
69415;BMP280;56608;43.530;-5.652;2023-03-21T01:59:04;101713.38;;;13.73
69415;BMP280;56608;43.530;-5.652;2023-03-21T02:00:06;101711.72;;;13.79
69415;BMP280;56608;43.530;-5.652;2023-03-21T02:01:11;101720.53;;;13.79
69415;BMP280;56608;43.530;-5.652;2023-03-21T02:02:14;101713.19;;;13.80
69415;BMP280;56608;43.530;-5.652;2023-03-21T02:03:16;101710.84;;;13.82
69415;BMP280;56608;43.530;-5.652;2023-03-21T02:04:17;101711.59;;;13.82
69415;BMP280;56608;43.530;-5.652;2023-03-21T02:06:07;101721.00;;;13.78
69415;BMP280;56608;43.530;-5.652;2023-03-21T02:07:42;101707.13;;;13.63
69415;BMP280;56608;43.530;-5.652;2023-03-21T02:08:43;101710.47;;;13.67
69415;BMP280;56608;43.530;-5.652;2023-03-21T02:09:46;101704.09;;;13.61
69415;BMP280;56608;43.530;-5.652;2023-03-21T02:10:48;101702.25;;;13.58
69415;BMP280;56608;43.530;-5.652;2023-03-21T02:11:48;101699.56;;;13.58
69415;BMP280;56608;43.530;-5.652;2023-03-21T02:12:49;101693.72;;;13.59
69415;BMP280;56608;43.530;-5.652;2023-03-21T02:13:49;101700.63;;;13.60
69415;BMP280;56608;43.530;-5.652;2023-03-21T02:14:49;101692.31;;;13.55
69415;BMP280;56608;43.530;-5.652;2023-03-21T02:18:08;101683.94;;;13.49
69415;BMP280;56608;43.530;-5.652;2023-03-21T02:19:17;101687.84;;;13.48
69415;BMP280;56608;43.530;-5.652;2023-03-21T02:21:52;101684.19;;;13.55
69415;BMP280;56608;43.530;-5.652;2023-03-21T02:23:00;101678.50;;;13.53
69415;BMP280;56608;43.530;-5.652;2023-03-21T02:24:25;101678.66;;;13.46
69415;BMP280;56608;43.530;-5.652;2023-03-21T02:26:54;101662.47;;;13.33
69415;BMP280;56608;43.530;-5.652;2023-03-21T02:32:09;101658.78;;;13.40
69415;BMP280;56608;43.530;-5.652;2023-03-21T02:36:15;101672.97;;;13.56
69415;BMP280;56608;43.530;-5.652;2023-03-21T02:37:20;101657.37;;;13.48
69415;BMP280;56608;43.530;-5.652;2023-03-21T02:38:29;101669.69;;;13.36
69415;BMP280;56608;43.530;-5.652;2023-03-21T02:43:57;101658.69;;;13.43
69415;BMP280;56608;43.530;-5.652;2023-03-21T02:45:10;101659.00;;;13.45
69415;BMP280;56608;43.530;-5.652;2023-03-21T02:46:18;101657.06;;;13.46
69415;BMP280;56608;43.530;-5.652;2023-03-21T02:48:59;101658.78;;;13.40
69415;BMP280;56608;43.530;-5.652;2023-03-21T02:51:08;101654.03;;;13.31
69415;BMP280;56608;43.530;-5.652;2023-03-21T02:52:11;101659.00;;;13.32
69415;BMP280;56608;43.530;-5.652;2023-03-21T02:53:13;101655.31;;;13.26
69415;BMP280;56608;43.530;-5.652;2023-03-21T02:54:16;101649.81;;;13.30
69415;BMP280;56608;43.530;-5.652;2023-03-21T02:55:21;101651.66;;;13.33
69415;BMP280;56608;43.530;-5.652;2023-03-21T02:56:23;101656.28;;;13.32
69415;BMP280;56608;43.530;-5.652;2023-03-21T02:57:25;101651.66;;;13.33
69415;BMP280;56608;43.530;-5.652;2023-03-21T02:58:25;101656.59;;;13.35
69415;BMP280;56608;43.530;-5.652;2023-03-21T02:59:27;101643.56;;;13.33
69415;BMP280;56608;43.530;-5.652;2023-03-21T03:00:28;101646.16;;;13.37
69415;BMP280;56608;43.530;-5.652;2023-03-21T03:01:30;101651.13;;;13.38
69415;BMP280;56608;43.530;-5.652;2023-03-21T03:02:31;101651.13;;;13.38
69415;BMP280;56608;43.530;-5.652;2023-03-21T03:03:31;101653.47;;;13.36
69415;BMP280;56608;43.530;-5.652;2023-03-21T03:04:36;101650.69;;;13.40
69415;BMP280;56608;43.530;-5.652;2023-03-21T03:05:39;101642.81;;;13.32
69415;BMP280;56608;43.530;-5.652;2023-03-21T03:07:00;101646.25;;;13.33
69415;BMP280;56608;43.530;-5.652;2023-03-21T03:18:59;101647.69;;;13.50
69415;BMP280;56608;43.530;-5.652;2023-03-21T03:21:39;101641.00;;;13.55
69415;BMP280;56608;43.530;-5.652;2023-03-21T03:24:45;101633.66;;;13.55
69415;BMP280;56608;43.530;-5.652;2023-03-21T03:26:08;101636.38;;;13.55
69415;BMP280;56608;43.530;-5.652;2023-03-21T03:27:11;101637.13;;;13.56
69415;BMP280;56608;43.530;-5.652;2023-03-21T03:28:16;101634.34;;;13.59
69415;BMP280;56608;43.530;-5.652;2023-03-21T03:29:17;101635.19;;;13.56
69415;BMP280;56608;43.530;-5.652;2023-03-21T03:30:18;101632.81;;;13.58
69415;BMP280;56608;43.530;-5.652;2023-03-21T03:31:20;101635.81;;;13.60
69415;BMP280;56608;43.530;-5.652;2023-03-21T03:32:27;101640.03;;;13.61
69415;BMP280;56608;43.530;-5.652;2023-03-21T03:33:30;101638.09;;;13.62
69415;BMP280;56608;43.530;-5.652;2023-03-21T03:34:33;101635.09;;;13.60
69415;BMP280;56608;43.530;-5.652;2023-03-21T03:35:38;101632.06;;;13.58
69415;BMP280;56608;43.530;-5.652;2023-03-21T03:36:40;101628.25;;;13.55
69415;BMP280;56608;43.530;-5.652;2023-03-21T03:37:41;101632.06;;;13.58
69415;BMP280;56608;43.530;-5.652;2023-03-21T03:38:42;101627.00;;;13.60
69415;BMP280;56608;43.530;-5.652;2023-03-21T03:39:50;101631.94;;;13.61
69415;BMP280;56608;43.530;-5.652;2023-03-21T03:40:57;101628.81;;;13.63
69415;BMP280;56608;43.530;-5.652;2023-03-21T03:42:06;101624.72;;;13.58
69415;BMP280;56608;43.530;-5.652;2023-03-21T03:43:09;101629.16;;;13.52
69415;BMP280;56608;43.530;-5.652;2023-03-21T03:44:10;101626.63;;;13.45
69415;BMP280;56608;43.530;-5.652;2023-03-21T03:45:11;101632.88;;;13.42
69415;BMP280;56608;43.530;-5.652;2023-03-21T03:46:13;101635.91;;;13.44
69415;BMP280;56608;43.530;-5.652;2023-03-21T03:47:18;101635.38;;;13.49
69415;BMP280;56608;43.530;-5.652;2023-03-21T03:48:34;101630.31;;;13.51
69415;BMP280;56608;43.530;-5.652;2023-03-21T03:49:49;101636.87;;;13.50
69415;BMP280;56608;43.530;-5.652;2023-03-21T03:52:26;101629.66;;;13.47
69415;BMP280;56608;43.530;-5.652;2023-03-21T03:53:23;101634.72;;;13.45
69415;BMP280;56608;43.530;-5.652;2023-03-21T03:54:33;101638.59;;;13.44
69415;BMP280;56608;43.530;-5.652;2023-03-21T03:55:36;101629.09;;;13.40
69415;BMP280;56608;43.530;-5.652;2023-03-21T03:56:36;101633.22;;;13.44
69415;BMP280;56608;43.530;-5.652;2023-03-21T03:57:37;101635.56;;;13.42
69415;BMP280;56608;43.530;-5.652;2023-03-21T03:58:39;101642.47;;;13.43
69415;BMP280;56608;43.530;-5.652;2023-03-21T03:59:40;101636.25;;;13.46
69415;BMP280;56608;43.530;-5.652;2023-03-21T04:00:41;101635.16;;;13.44
69415;BMP280;56608;43.530;-5.652;2023-03-21T04:01:42;101633.22;;;13.44
69415;BMP280;56608;43.530;-5.652;2023-03-21T04:02:42;101639.44;;;13.41
69415;BMP280;56608;43.530;-5.652;2023-03-21T04:03:46;101641.09;;;13.39
69415;BMP280;56608;43.530;-5.652;2023-03-21T04:04:48;101637.19;;;13.40
69415;BMP280;56608;43.530;-5.652;2023-03-21T04:05:52;101638.47;;;13.35
69415;BMP280;56608;43.530;-5.652;2023-03-21T04:06:53;101635.97;;;13.28
69415;BMP280;56608;43.530;-5.652;2023-03-21T04:07:53;101641.06;;;13.26
69415;BMP280;56608;43.530;-5.652;2023-03-21T04:08:54;101635.66;;;13.26
69415;BMP280;56608;43.530;-5.652;2023-03-21T04:09:55;101639.12;;;13.26
69415;BMP280;56608;43.530;-5.652;2023-03-21T04:10:56;101637.78;;;13.18
69415;BMP280;56608;43.530;-5.652;2023-03-21T04:11:57;101645.75;;;13.22
69415;BMP280;56608;43.530;-5.652;2023-03-21T04:12:57;101651.59;;;13.20
69415;BMP280;56608;43.530;-5.652;2023-03-21T04:13:57;101645.44;;;13.20
69415;BMP280;56608;43.530;-5.652;2023-03-21T04:14:58;101649.66;;;13.21
69415;BMP280;56608;43.530;-5.652;2023-03-21T04:15:58;101649.22;;;13.22
69415;BMP280;56608;43.530;-5.652;2023-03-21T04:16:59;101651.50;;;13.24
69415;BMP280;56608;43.530;-5.652;2023-03-21T04:17:59;101653.38;;;13.27
69415;BMP280;56608;43.530;-5.652;2023-03-21T04:19:00;101658.31;;;13.28
69415;BMP280;56608;43.530;-5.652;2023-03-21T04:20:01;101654.56;;;13.26
69415;BMP280;56608;43.530;-5.652;2023-03-21T04:21:07;101661.47;;;13.27
69415;BMP280;56608;43.530;-5.652;2023-03-21T04:22:07;101661.78;;;13.29
69415;BMP280;56608;43.530;-5.652;2023-03-21T04:23:08;101658.41;;;13.25
69415;BMP280;56608;43.530;-5.652;2023-03-21T04:24:08;101654.56;;;13.26
69415;BMP280;56608;43.530;-5.652;2023-03-21T04:25:08;101658.41;;;13.25
69415;BMP280;56608;43.530;-5.652;2023-03-21T04:26:09;101669.88;;;13.29
69415;BMP280;56608;43.530;-5.652;2023-03-21T04:27:10;101670.63;;;13.29
69415;BMP280;56608;43.530;-5.652;2023-03-21T04:28:10;101661.47;;;13.27
69415;BMP280;56608;43.530;-5.652;2023-03-21T04:29:11;101669.88;;;13.29
69415;BMP280;56608;43.530;-5.652;2023-03-21T04:30:11;101663.63;;;13.32
69415;BMP280;56608;43.530;-5.652;2023-03-21T04:31:11;101671.31;;;13.34
69415;BMP280;56608;43.530;-5.652;2023-03-21T04:32:12;101673.75;;;13.28
69415;BMP280;56608;43.530;-5.652;2023-03-21T04:33:16;101671.56;;;13.23
69415;BMP280;56608;43.530;-5.652;2023-03-21T04:34:17;101673.66;;;13.31
69415;BMP280;56608;43.530;-5.652;2023-03-21T04:35:17;101672.72;;;13.38
69415;BMP280;56608;43.530;-5.652;2023-03-21T04:36:17;101671.41;;;13.43
69415;BMP280;56608;43.530;-5.652;2023-03-21T04:37:26;101670.34;;;13.40
69415;BMP280;56608;43.530;-5.652;2023-03-21T04:38:26;101668.84;;;13.39
69415;BMP280;56608;43.530;-5.652;2023-03-21T04:39:30;101670.09;;;13.35
69415;BMP280;56608;43.530;-5.652;2023-03-21T04:40:30;101676.97;;;13.23
69415;BMP280;56608;43.530;-5.652;2023-03-21T04:41:30;101672.75;;;13.22
69415;BMP280;56608;43.530;-5.652;2023-03-21T04:42:31;101670.28;;;13.15
69415;BMP280;56608;43.530;-5.652;2023-03-21T04:43:32;101674.16;;;13.14
69415;BMP280;56608;43.530;-5.652;2023-03-21T04:44:32;101667.13;;;13.16
69415;BMP280;56608;43.530;-5.652;2023-03-21T04:45:32;101670.50;;;13.20
69415;BMP280;56608;43.530;-5.652;2023-03-21T04:46:33;101670.91;;;13.19
69415;BMP280;56608;43.530;-5.652;2023-03-21T04:47:34;101671.09;;;13.12
69415;BMP280;56608;43.530;-5.652;2023-03-21T04:48:34;101674.66;;;13.09
69415;BMP280;56608;43.530;-5.652;2023-03-21T04:49:34;101678.88;;;13.10
69415;BMP280;56608;43.530;-5.652;2023-03-21T04:50:35;101673.47;;;13.10
69415;BMP280;56608;43.530;-5.652;2023-03-21T04:51:35;101678.44;;;13.11
69415;BMP280;56608;43.530;-5.652;2023-03-21T04:52:36;101679.97;;;13.12
69415;BMP280;56608;43.530;-5.652;2023-03-21T04:53:36;101679.62;;;13.10
69415;BMP280;56608;43.530;-5.652;2023-03-21T04:54:37;101682.31;;;13.10
69415;BMP280;56608;43.530;-5.652;2023-03-21T04:55:38;101685.13;;;13.07
69415;BMP280;56608;43.530;-5.652;2023-03-21T04:56:38;101678.97;;;13.06
69415;BMP280;56608;43.530;-5.652;2023-03-21T04:57:39;101689.09;;;13.02
69415;BMP280;56608;43.530;-5.652;2023-03-21T04:58:39;101679.06;;;13.03
69415;BMP280;56608;43.530;-5.652;2023-03-21T04:59:40;101686.53;;;13.11
69415;BMP280;56608;43.530;-5.652;2023-03-21T05:00:40;101673.28;;;13.17
69415;BMP280;56608;43.530;-5.652;2023-03-21T05:01:41;101679.34;;;13.21
69415;BMP280;56608;43.530;-5.652;2023-03-21T05:02:42;101678.25;;;13.18
69415;BMP280;56608;43.530;-5.652;2023-03-21T05:03:43;101681.25;;;13.08
69415;BMP280;56608;43.530;-5.652;2023-03-21T05:04:43;101680.91;;;13.06
69415;BMP280;56608;43.530;-5.652;2023-03-21T05:05:44;101679.38;;;13.05
69415;BMP280;56608;43.530;-5.652;2023-03-21T05:06:45;101692.03;;;13.08
69415;BMP280;56608;43.530;-5.652;2023-03-21T05:07:45;101682.09;;;13.05
69415;BMP280;56608;43.530;-5.652;2023-03-21T05:08:45;101693.22;;;13.07
69415;BMP280;56608;43.530;-5.652;2023-03-21T05:09:46;101692.03;;;13.08
69415;BMP280;56608;43.530;-5.652;2023-03-21T05:10:46;101697.44;;;13.08
69415;BMP280;56608;43.530;-5.652;2023-03-21T05:11:47;101698.28;;;13.05
69415;BMP280;56608;43.530;-5.652;2023-03-21T05:12:47;101693.03;;;12.98
69415;BMP280;56608;43.530;-5.652;2023-03-21T05:13:47;101689.16;;;12.99
69415;BMP280;56608;43.530;-5.652;2023-03-21T05:14:48;101701.06;;;13.01
69415;BMP280;56608;43.530;-5.652;2023-03-21T05:15:48;101691.34;;;13.04
69415;BMP280;56608;43.530;-5.652;2023-03-21T05:16:49;101687.66;;;12.98
69415;BMP280;56608;43.530;-5.652;2023-03-21T05:17:53;101697.34;;;12.95
69415;BMP280;56608;43.530;-5.652;2023-03-21T05:18:53;101693.03;;;12.98
69415;BMP280;56608;43.530;-5.652;2023-03-21T05:19:54;101692.03;;;13.08
69415;BMP280;56608;43.530;-5.652;2023-03-21T05:20:57;101695.91;;;13.07
69415;BMP280;56608;43.530;-5.652;2023-03-21T05:21:58;101689.00;;;13.06
69415;BMP280;56608;43.530;-5.652;2023-03-21T05:22:58;101695.25;;;13.03
69415;BMP280;56608;43.530;-5.652;2023-03-21T05:23:59;101692.88;;;13.05
69415;BMP280;56608;43.530;-5.652;2023-03-21T05:25:02;101696.22;;;13.09
69415;BMP280;56608;43.530;-5.652;2023-03-21T05:26:06;101701.88;;;13.14
69415;BMP280;56608;43.530;-5.652;2023-03-21T05:27:07;101691.84;;;13.15
69415;BMP280;56608;43.530;-5.652;2023-03-21T05:28:07;101700.91;;;13.08
69415;BMP280;56608;43.530;-5.652;2023-03-21T05:29:08;101700.56;;;13.06
69415;BMP280;56608;43.530;-5.652;2023-03-21T05:30:16;101702.16;;;13.04
69415;BMP280;56608;43.530;-5.652;2023-03-21T05:31:17;101701.97;;;13.11
69415;BMP280;56608;43.530;-5.652;2023-03-21T05:32:17;101697.34;;;13.11
69415;BMP280;56608;43.530;-5.652;2023-03-21T05:33:18;101694.09;;;13.16
69415;BMP280;56608;43.530;-5.652;2023-03-21T05:34:18;101700.19;;;13.20
69415;BMP280;56608;43.530;-5.652;2023-03-21T05:35:19;101696.19;;;13.25
69415;BMP280;56608;43.530;-5.652;2023-03-21T05:36:19;101699.56;;;13.29
69415;BMP280;56608;43.530;-5.652;2023-03-21T05:37:19;101696.88;;;13.29
69415;BMP280;56608;43.530;-5.652;2023-03-21T05:38:20;101694.63;;;13.27
69415;BMP280;56608;43.530;-5.652;2023-03-21T05:39:20;101706.06;;;13.31
69415;BMP280;56608;43.530;-5.652;2023-03-21T05:40:21;101700.25;;;13.33
69415;BMP280;56608;43.530;-5.652;2023-03-21T05:41:21;101703.03;;;13.29
69415;BMP280;56608;43.530;-5.652;2023-03-21T05:42:21;101699.91;;;13.31
69415;BMP280;56608;43.530;-5.652;2023-03-21T05:43:22;101699.91;;;13.31
69415;BMP280;56608;43.530;-5.652;2023-03-21T05:44:22;101696.88;;;13.29
69415;BMP280;56608;43.530;-5.652;2023-03-21T05:45:22;101700.66;;;13.31
69415;BMP280;56608;43.530;-5.652;2023-03-21T05:46:23;101706.81;;;13.32
69415;BMP280;56608;43.530;-5.652;2023-03-21T05:47:24;101704.97;;;13.29
69415;BMP280;56608;43.530;-5.652;2023-03-21T05:48:24;101709.34;;;13.23
69415;BMP280;56608;43.530;-5.652;2023-03-21T05:49:25;101713.66;;;13.20
69415;BMP280;56608;43.530;-5.652;2023-03-21T05:50:26;101708.03;;;13.15
69415;BMP280;56608;43.530;-5.652;2023-03-21T05:51:26;101715.03;;;13.12
69415;BMP280;56608;43.530;-5.652;2023-03-21T05:52:26;101714.94;;;13.16
69415;BMP280;56608;43.530;-5.652;2023-03-21T05:53:28;101719.50;;;13.19
69415;BMP280;56608;43.530;-5.652;2023-03-21T05:54:29;101713.50;;;13.27
69415;BMP280;56608;43.530;-5.652;2023-03-21T05:55:29;101711.47;;;13.31
69415;BMP280;56608;43.530;-5.652;2023-03-21T05:56:29;101716.75;;;13.35
69415;BMP280;56608;43.530;-5.652;2023-03-21T05:57:30;101723.25;;;13.38
69415;BMP280;56608;43.530;-5.652;2023-03-21T05:58:33;101715.03;;;13.41
69415;BMP280;56608;43.530;-5.652;2023-03-21T05:59:34;101715.37;;;13.43
69415;BMP280;56608;43.530;-5.652;2023-03-21T06:00:34;101724.97;;;13.44
69415;BMP280;56608;43.530;-5.652;2023-03-21T06:01:35;101718.75;;;13.47
69415;BMP280;56608;43.530;-5.652;2023-03-21T06:02:35;101722.94;;;13.48
69415;BMP280;56608;43.530;-5.652;2023-03-21T06:03:35;101721.00;;;13.49
69415;BMP280;56608;43.530;-5.652;2023-03-21T06:04:36;101727.91;;;13.50
69415;BMP280;56608;43.530;-5.652;2023-03-21T06:05:36;101721.00;;;13.49
69415;BMP280;56608;43.530;-5.652;2023-03-21T06:06:36;101726.72;;;13.51
69415;BMP280;56608;43.530;-5.652;2023-03-21T06:07:37;101727.50;;;13.51
69415;BMP280;56608;43.530;-5.652;2023-03-21T06:08:37;101723.28;;;13.50
69415;BMP280;56608;43.530;-5.652;2023-03-21T06:09:37;101723.38;;;13.47
69415;BMP280;56608;43.530;-5.652;2023-03-21T06:10:38;101729.97;;;13.46
69415;BMP280;56608;43.530;-5.652;2023-03-21T06:11:38;101727.56;;;13.48
69415;BMP280;56608;43.530;-5.652;2023-03-21T06:12:41;101724.00;;;13.38
69415;BMP280;56608;43.530;-5.652;2023-03-21T06:13:42;101724.66;;;13.42
69415;BMP280;56608;43.530;-5.652;2023-03-21T06:14:42;101730.38;;;13.44
69415;BMP280;56608;43.530;-5.652;2023-03-21T06:15:42;101732.25;;;13.47
69415;BMP280;56608;43.530;-5.652;2023-03-21T06:16:43;101728.34;;;13.48
69415;BMP280;56608;43.530;-5.652;2023-03-21T06:17:43;101722.63;;;13.46
69415;BMP280;56608;43.530;-5.652;2023-03-21T06:18:44;101723.47;;;13.43
69415;BMP280;56608;43.530;-5.652;2023-03-21T06:19:44;101721.84;;;13.46
69415;BMP280;56608;43.530;-5.652;2023-03-21T06:20:44;101722.63;;;13.46
69415;BMP280;56608;43.530;-5.652;2023-03-21T06:21:45;101721.09;;;13.45
69415;BMP280;56608;43.530;-5.652;2023-03-21T06:22:45;101716.47;;;13.46
69415;BMP280;56608;43.530;-5.652;2023-03-21T06:23:45;101715.72;;;13.45
69415;BMP280;56608;43.530;-5.652;2023-03-21T06:24:46;101719.16;;;13.46
69415;BMP280;56608;43.530;-5.652;2023-03-21T06:25:46;101713.00;;;13.45